Terminal Aerodrome Forecast
Issued by NWS Blacksburg, VA

Current Version | Previous Version | Text Only | Print | Product List | Glossary Off
Versions: 1 2 3 4 5 6 7 8 9 10 11 12 13 14 15 16 17 18 19 20 21 22 23 24 25 26 27 28 29 30 31 32 33 34 35 36 37 38 39 40 41 42 43 44 45 46 47 48 49 50

000
FTUS41 KRNK 251144
TAFBLF
TAF
KBLF 251144Z 2512/2612 31004KT 1SM BR OVC004
      TEMPO 2512/2514 3/4SM -DZ BR VV003
     FM251400 30005KT P6SM OVC004
      TEMPO 2514/2518 4SM -SHRA OVC008
     FM261000 VRB03KT P6SM OVC011=

USA.gov is the U.S. government's official web portal to all federal, state and local government web resources and services.